Diamond Ocean — VRMF8 — position and weather

sailwx.info

Track history (hours):
 
Tides and Currents Weather Stations Pressure Air Temp Water Temp Dewpoint Dewpoint Depression Visibility Wind Speed Wind Dir Waves Ship Positions

Diamond Ocean

Last reported at 2018-Jun-10 01:51 UTC. Time now 2018-Jul-22 17:47 UTC.
Position N 22°11' E 120°04'.
Warning: this ship's position is 42 days out of date.

Length 228 m; draft 8.2 m.

Type: Cargo ship. MMSI: 477942600.

Date/timePositionNaut miles runAvg speedWind from/ knotsBaromVisibWave heightAir tempDewpointWater temp
2018-Jun-10 01:51N 22°11' E 120°04'513.1
2018-Jun-10 01:29N 22°15' E 120°02'613.0
2018-Jun-10 01:00N 22°22' E 120°00'713.2
2018-Jun-10 00:27N 22°28' E 119°57'613.0
2018-Jun-10 00:00N 22°34' E 119°56'713.0
2018-Jun-09 23:27N 22°41' E 119°56'613.1
2018-Jun-09 22:58N 22°48' E 119°56'712.8
2018-Jun-09 22:27N 22°54' E 119°56'  
2018-Jun-07 06:29N 23°02' E 119°56'712.5
2018-Jun-07 05:55N 22°55' E 119°56'512.0
2018-Jun-07 05:30N 22°50' E 119°56'611.5
2018-Jun-07 05:00N 22°44' E 119°56'511.1
2018-Jun-07 04:30N 22°39' E 119°56'510.9
2018-Jun-07 04:00N 22°33' E 119°56'510.5
2018-Jun-07 03:30N 22°28' E 119°56'510.5
2018-Jun-07 03:00N 22°24' E 119°59'510.6
2018-Jun-07 02:30N 22°19' E 120°02'610.8
2018-Jun-07 01:55N 22°14' E 120°05'510.8
2018-Jun-07 01:30N 22°09' E 120°07'  
Track history (hours):
 
Tides and Currents Weather Stations Pressure Air Temp Water Temp Dewpoint Dewpoint Depression Visibility Wind Speed Wind Dir Waves Ship Positions

Diamond Ocean

Last reported at 2018-Jun-10 01:51 UTC. Time now 2018-Jul-22 17:47 UTC.
Position N 22°11' E 120°04'.
Warning: this ship's position is 42 days out of date.

Length 228 m; draft 8.2 m.

Type: Cargo ship. MMSI: 477942600.

Date/timePositionNaut miles runAvg speedWind from/ knotsBaromVisibWave heightAir tempDewpointWater temp
2018-Jun-10 01:51N 22°11' E 120°04'513.1
2018-Jun-10 01:29N 22°15' E 120°02'613.0
2018-Jun-10 01:00N 22°22' E 120°00'713.2
2018-Jun-10 00:27N 22°28' E 119°57'613.0
2018-Jun-10 00:00N 22°34' E 119°56'713.0
2018-Jun-09 23:27N 22°41' E 119°56'613.1
2018-Jun-09 22:58N 22°48' E 119°56'712.8
2018-Jun-09 22:27N 22°54' E 119°56'  
2018-Jun-07 06:29N 23°02' E 119°56'712.5
2018-Jun-07 05:55N 22°55' E 119°56'512.0
2018-Jun-07 05:30N 22°50' E 119°56'611.5
2018-Jun-07 05:00N 22°44' E 119°56'511.1
2018-Jun-07 04:30N 22°39' E 119°56'510.9
2018-Jun-07 04:00N 22°33' E 119°56'510.5
2018-Jun-07 03:30N 22°28' E 119°56'510.5
2018-Jun-07 03:00N 22°24' E 119°59'510.6
2018-Jun-07 02:30N 22°19' E 120°02'610.8
2018-Jun-07 01:55N 22°14' E 120°05'510.8
2018-Jun-07 01:30N 22°09' E 120°07'  

Dump ship's entire track history